createdAt,value
2019-03-18T00:01:44.753Z,97885.60
2019-03-18T00:04:11.266Z,97896.44
2019-03-18T00:06:37.939Z,97897.68
2019-03-18T00:09:08.401Z,97904.59
2019-03-18T00:11:34.925Z,97900.66
2019-03-18T00:14:01.604Z,97903.27
2019-03-18T00:16:28.104Z,97912.80
2019-03-18T00:18:54.608Z,97917.97
2019-03-18T00:21:21.293Z,97918.38
2019-03-18T00:23:50.823Z,97909.25
2019-03-18T00:26:17.347Z,97914.47
2019-03-18T00:32:24.041Z,97925.70
2019-03-18T00:34:50.501Z,97936.52
2019-03-18T00:37:16.977Z,97938.66
2019-03-18T00:39:43.532Z,97931.77
2019-03-18T00:42:10.006Z,97928.32
2019-03-18T00:45:31.962Z,97924.89
2019-03-18T00:47:59.829Z,97928.84
2019-03-18T00:50:26.360Z,97931.02
2019-03-18T00:56:33.333Z,97938.02
2019-03-18T00:59:00.152Z,97944.94
2019-03-18T01:01:26.737Z,97939.33
2019-03-18T01:04:11.956Z,97952.75
2019-03-18T01:06:38.564Z,97954.91
2019-03-18T01:09:05.413Z,97951.88
2019-03-18T01:11:31.896Z,97952.75
2019-03-18T01:13:58.425Z,97958.37
2019-03-18T01:16:24.945Z,97955.34
2019-03-18T01:18:51.583Z,97948.85
2019-03-18T01:21:18.539Z,97951.86
2019-03-18T01:23:47.319Z,97955.32
2019-03-18T01:26:13.846Z,97941.06
2019-03-18T01:28:40.345Z,97926.38
2019-03-18T01:31:09.243Z,97938.03
2019-03-18T01:33:35.739Z,97947.52
2019-03-18T01:36:02.244Z,97938.03
2019-03-18T01:38:32.111Z,97948.83
2019-03-18T01:41:01.461Z,97947.09
2019-03-18T01:43:28.089Z,97951.00
2019-03-18T01:49:34.515Z,97956.17
2019-03-18T01:52:01.667Z,97965.67
2019-03-18T01:54:28.174Z,97971.72
2019-03-18T01:56:54.711Z,97968.27
2019-03-18T01:59:21.806Z,97966.09
2019-03-18T02:01:50.615Z,97970.41
2019-03-18T02:04:17.148Z,97976.04
2019-03-18T02:06:43.705Z,97970.83
2019-03-18T02:09:13.088Z,97969.55
2019-03-18T02:11:39.624Z,97972.56
2019-03-18T02:14:08.081Z,97967.83
2019-03-18T02:17:29.882Z,97964.35
2019-03-18T02:19:57.906Z,97963.48
2019-03-18T02:22:24.719Z,97961.34
2019-03-18T02:24:51.206Z,97956.59
2019-03-18T02:27:17.733Z,97945.33
2019-03-18T02:29:44.218Z,97953.53
2019-03-18T02:32:10.747Z,97960.05
2019-03-18T02:34:39.872Z,97959.17
2019-03-18T02:37:06.777Z,97960.47
2019-03-18T02:43:13.484Z,97960.48
2019-03-18T02:45:39.998Z,97962.22
2019-03-18T02:48:07.460Z,97970.86
2019-03-18T02:54:14.170Z,97974.73
2019-03-18T02:56:40.727Z,97966.97
2019-03-18T02:59:07.870Z,97972.14
2019-03-18T03:01:34.490Z,97960.06
2019-03-18T03:04:01.255Z,97962.22
2019-03-18T03:06:30.698Z,97958.30
2019-03-18T03:08:59.291Z,97971.30
2019-03-18T03:11:28.418Z,97978.60
2019-03-18T03:17:38.222Z,97982.53
2019-03-18T03:20:04.902Z,97979.94
2019-03-18T03:23:01.244Z,97976.93
2019-03-18T03:25:31.034Z,97981.67
2019-03-18T03:27:57.576Z,97985.58
2019-03-18T03:30:24.175Z,97987.30
2019-03-18T03:32:57.968Z,97997.67
2019-03-18T03:35:24.919Z,98005.88
2019-03-18T03:37:52.030Z,98010.20
2019-03-18T03:40:19.667Z,98011.50
2019-03-18T03:42:46.470Z,98016.69
2019-03-18T03:45:13.536Z,98017.53
2019-03-18T03:47:58.867Z,98023.16
2019-03-18T03:50:27.597Z,98020.13
2019-03-18T03:52:54.811Z,98026.66
2019-03-18T03:55:21.746Z,98027.52
2019-03-18T03:57:49.700Z,98026.21
2019-03-18T04:03:59.171Z,98028.41
2019-03-18T04:06:27.430Z,98020.19
2019-03-18T04:12:34.293Z,98013.68
2019-03-18T04:18:42.653Z,97999.86
2019-03-18T04:21:09.226Z,98003.30
2019-03-18T04:23:37.748Z,98008.47
2019-03-18T04:26:04.715Z,98011.49
2019-03-18T04:28:34.036Z,98014.09
2019-03-18T04:31:00.562Z,98008.04
2019-03-18T04:33:29.291Z,98012.38
2019-03-18T04:35:57.759Z,98014.52
2019-03-18T04:42:04.169Z,98030.52
2019-03-18T04:44:30.715Z,98042.62
2019-03-18T04:46:58.842Z,98047.77
2019-03-18T04:49:25.825Z,98048.66
2019-03-18T04:51:53.242Z,98059.02
2019-03-18T04:54:21.606Z,98047.41
2019-03-18T05:00:19.960Z,98053.89
2019-03-18T05:02:46.516Z,98063.38
2019-03-18T05:05:20.378Z,98061.22
2019-03-18T05:07:53.229Z,98067.26
2019-03-18T05:10:22.298Z,98068.58
2019-03-18T05:12:48.935Z,98069.85
2019-03-18T05:15:15.588Z,98082.84
2019-03-18T05:17:51.160Z,98080.22
2019-03-18T05:20:20.243Z,98072.45
2019-03-18T05:22:46.781Z,98059.89
2019-03-18T05:25:13.428Z,98070.27
2019-03-18T05:27:39.991Z,98079.34
2019-03-18T05:30:07.015Z,98072.85
2019-03-18T05:32:33.634Z,98070.29
2019-03-18T05:35:00.371Z,98073.75
2019-03-18T05:37:26.871Z,98067.26
2019-03-18T05:39:53.380Z,98076.73
2019-03-18T05:42:19.862Z,98072.45
2019-03-18T05:45:41.328Z,98081.52
2019-03-18T05:48:08.477Z,98075.91
2019-03-18T05:50:38.433Z,98065.11
2019-03-18T05:53:05.007Z,98074.63
2019-03-18T05:55:34.550Z,98090.19
2019-03-18T05:58:01.159Z,98082.38
2019-03-18T06:00:30.679Z,98089.31
2019-03-18T06:02:57.502Z,98090.62
2019-03-18T06:05:24.015Z,98099.69
2019-03-18T06:07:50.558Z,98106.63
2019-03-18T06:11:11.937Z,98107.06
2019-03-18T06:13:38.507Z,98110.52
2019-03-18T06:16:07.089Z,98116.58
2019-03-18T06:18:33.708Z,98107.96
2019-03-18T06:21:00.840Z,98108.42
2019-03-18T06:27:08.198Z,98104.96
2019-03-18T06:29:34.854Z,98110.59
2019-03-18T06:32:01.392Z,98111.03
2019-03-18T06:35:22.792Z,98107.11
2019-03-18T06:37:51.886Z,98105.39
2019-03-18T06:40:18.399Z,98113.16
2019-03-18T06:42:45.006Z,98105.34
2019-03-18T06:45:12.009Z,98114.41
2019-03-18T06:47:41.726Z,98111.31
2019-03-18T06:50:08.406Z,98114.73
2019-03-18T06:52:34.892Z,98120.35
2019-03-18T06:55:01.497Z,98124.72
2019-03-18T06:57:28.490Z,98118.64
2019-03-18T06:59:55.032Z,98111.67
2019-03-18T07:02:21.626Z,98100.41
2019-03-18T07:04:48.242Z,98109.13
2019-03-18T07:07:15.170Z,98116.06
2019-03-18T07:09:41.715Z,98113.02
2019-03-18T07:12:08.293Z,98123.83
2019-03-18T07:14:34.972Z,98132.05
2019-03-18T07:17:01.957Z,98126.43
2019-03-18T07:19:28.469Z,98130.30
2019-03-18T07:22:00.751Z,98129.44
2019-03-18T07:28:10.284Z,98135.88
2019-03-18T07:30:39.680Z,98139.34
2019-03-18T07:33:06.584Z,98154.08
2019-03-18T07:35:33.470Z,98147.59
2019-03-18T07:38:00.697Z,98164.50
2019-03-18T07:40:27.944Z,98169.22
2019-03-18T07:42:54.806Z,98173.52
2019-03-18T07:49:01.592Z,98181.80
2019-03-18T07:51:31.665Z,98195.65
2019-03-18T07:53:58.720Z,98194.76
2019-03-18T07:57:02.158Z,98201.27
2019-03-18T07:59:29.767Z,98209.46
2019-03-18T08:02:04.998Z,98213.32
2019-03-18T08:04:42.325Z,98214.58
2019-03-18T08:07:52.233Z,98210.17
2019-03-18T08:10:18.802Z,98215.26
2019-03-18T08:12:45.442Z,98227.44
2019-03-18T08:16:07.474Z,98221.80
2019-03-18T08:18:43.042Z,98224.77
2019-03-18T08:21:03.188Z,98214.34
2019-03-18T08:27:09.907Z,98232.56
2019-03-18T08:29:36.496Z,98243.44
2019-03-18T08:32:46.872Z,98246.09
2019-03-18T08:35:13.488Z,98246.56
2019-03-18T08:37:40.065Z,98253.72
2019-03-18T08:40:07.354Z,98252.58
2019-03-18T08:42:34.154Z,98256.73
2019-03-18T08:48:40.516Z,98251.88
2019-03-18T08:51:07.100Z,98259.64
2019-03-18T08:53:33.690Z,98268.23
2019-03-18T08:56:01.481Z,98276.73
2019-03-18T08:58:28.072Z,98277.75
2019-03-18T09:00:54.790Z,98278.63
2019-03-18T09:03:21.335Z,98282.25
2019-03-18T09:05:47.969Z,98287.89
2019-03-18T09:08:14.828Z,98279.64
2019-03-18T09:11:36.534Z,98282.34
2019-03-18T09:14:03.678Z,98283.05
2019-03-18T09:16:30.292Z,98282.06
2019-03-18T09:19:08.151Z,98288.73
2019-03-18T09:21:25.857Z,98297.84
2019-03-18T09:23:52.654Z,98293.69
2019-03-18T09:26:19.457Z,98314.88
2019-03-18T09:28:46.037Z,98315.75
2019-03-18T09:31:12.869Z,98318.08
2019-03-18T09:33:39.592Z,98310.70
2019-03-18T09:37:01.147Z,98322.43
2019-03-18T09:39:27.644Z,98316.28
2019-03-18T09:41:54.252Z,98325.00
2019-03-18T09:44:20.873Z,98316.94
2019-03-18T09:46:47.504Z,98320.59
2019-03-18T09:49:21.558Z,98326.69
2019-03-18T09:51:43.000Z,98326.50
2019-03-18T09:54:09.682Z,98335.52
2019-03-18T09:56:37.128Z,98338.00
2019-03-18T09:59:03.873Z,98345.17
2019-03-18T10:01:30.683Z,98340.16
2019-03-18T10:03:57.658Z,98344.56
2019-03-18T10:06:24.248Z,98348.03
2019-03-18T10:08:50.845Z,98346.20
2019-03-18T10:11:17.426Z,98351.27
2019-03-18T10:13:44.069Z,98343.01
2019-03-18T10:16:13.354Z,98343.44
2019-03-18T10:18:39.992Z,98335.18
2019-03-18T10:21:06.749Z,98328.84
2019-03-18T10:23:33.604Z,98322.20
2019-03-18T10:26:00.130Z,98318.66
2019-03-18T10:28:26.849Z,98316.16
2019-03-18T10:34:33.829Z,98318.79
2019-03-18T10:37:00.833Z,98317.48
2019-03-18T10:39:27.601Z,98327.78
2019-03-18T10:41:54.283Z,98314.80
2019-03-18T10:44:21.310Z,98319.13
2019-03-18T10:46:48.061Z,98321.02
2019-03-18T10:49:14.584Z,98320.09
2019-03-18T10:51:43.178Z,98314.55
2019-03-18T10:54:09.931Z,98319.67
2019-03-18T10:56:36.551Z,98321.73
2019-03-18T10:59:03.292Z,98324.19
2019-03-18T11:02:24.990Z,98326.59
2019-03-18T11:04:51.694Z,98320.67
2019-03-18T11:07:18.375Z,98322.38
2019-03-18T11:09:45.385Z,98331.28
2019-03-18T11:12:11.943Z,98331.02
2019-03-18T11:15:33.916Z,98333.50
2019-03-18T11:18:00.836Z,98338.13
2019-03-18T11:20:27.528Z,98343.25
2019-03-18T11:22:54.756Z,98354.58
2019-03-18T11:25:21.358Z,98390.72
2019-03-18T11:27:48.400Z,98397.50
2019-03-18T11:30:15.244Z,98430.80
2019-03-18T11:36:21.815Z,98436.31
2019-03-18T11:38:48.607Z,98429.72
2019-03-18T11:41:17.386Z,98436.66
2019-03-18T11:47:23.660Z,98427.98
2019-03-18T11:49:50.499Z,98410.73
2019-03-18T11:52:17.115Z,98400.58
2019-03-18T11:54:43.974Z,98399.14
2019-03-18T11:57:10.703Z,98393.63
2019-03-18T11:59:37.362Z,98388.17
2019-03-18T12:02:04.352Z,98393.77
2019-03-18T12:04:32.833Z,98402.47
2019-03-18T12:06:59.519Z,98407.82
2019-03-18T12:09:26.090Z,98383.28
2019-03-18T12:11:52.862Z,98402.05
2019-03-18T12:14:19.615Z,98402.80
2019-03-18T12:16:46.281Z,98401.13
2019-03-18T12:19:12.896Z,98404.38
2019-03-18T12:21:39.569Z,98395.95
2019-03-18T12:24:06.309Z,98406.82
2019-03-18T12:26:32.929Z,98399.55
2019-03-18T12:28:59.508Z,98394.59
2019-03-18T12:31:26.067Z,98404.08
2019-03-18T12:33:52.734Z,98397.29
2019-03-18T12:36:19.419Z,98397.84
2019-03-18T12:38:46.279Z,98408.25
2019-03-18T12:41:12.815Z,98411.58
2019-03-18T12:43:39.551Z,98432.22
2019-03-18T12:46:06.705Z,98452.16
2019-03-18T12:48:33.296Z,98454.90
2019-03-18T12:52:13.254Z,98452.96
2019-03-18T12:54:39.929Z,98436.34
2019-03-18T12:57:06.535Z,98440.03
2019-03-18T12:59:33.895Z,98431.60
2019-03-18T13:02:01.041Z,98437.70
2019-03-18T13:08:08.261Z,98424.90
2019-03-18T13:10:34.910Z,98407.41
2019-03-18T13:13:01.676Z,98402.77
2019-03-18T13:15:29.312Z,98392.48
2019-03-18T13:17:56.411Z,98399.80
2019-03-18T13:20:23.130Z,98403.62
2019-03-18T13:22:52.347Z,98405.69
2019-03-18T13:26:13.650Z,98408.37
2019-03-18T13:28:40.373Z,98408.70
2019-03-18T13:31:07.080Z,98402.91
2019-03-18T13:33:33.588Z,98396.88
2019-03-18T13:36:55.186Z,98392.37
2019-03-18T13:39:21.787Z,98401.13
2019-03-18T13:41:48.432Z,98405.18
2019-03-18T13:44:15.205Z,98410.70
2019-03-18T13:47:01.868Z,98403.34
2019-03-18T13:49:30.275Z,98407.13
2019-03-18T13:51:56.821Z,98422.91
2019-03-18T13:54:23.844Z,98455.89
2019-03-18T13:56:51.791Z,98458.10
2019-03-18T13:59:18.424Z,98460.83
2019-03-18T14:01:45.014Z,98454.69
2019-03-18T14:04:11.680Z,98456.17
2019-03-18T14:06:57.827Z,98452.33
2019-03-18T14:10:19.791Z,98449.57
2019-03-18T14:16:26.826Z,98453.05
2019-03-18T14:18:55.431Z,98452.78
2019-03-18T14:21:32.790Z,98450.00
2019-03-18T14:23:50.753Z,98447.48
2019-03-18T14:26:17.293Z,98441.62
2019-03-18T14:29:39.222Z,98447.52
2019-03-18T14:32:06.840Z,98441.02
2019-03-18T14:34:34.158Z,98447.02
2019-03-18T14:37:01.467Z,98446.92
2019-03-18T14:39:30.741Z,98440.92
2019-03-18T14:42:01.346Z,98443.22
2019-03-18T14:48:09.505Z,98462.20
2019-03-18T14:51:46.953Z,98463.48
2019-03-18T14:54:13.854Z,98471.64
2019-03-18T14:56:46.915Z,98467.34
2019-03-18T14:59:13.510Z,98470.42
2019-03-18T15:01:41.708Z,98470.75
2019-03-18T15:04:08.566Z,98465.53
2019-03-18T15:06:45.036Z,98471.64
2019-03-18T15:09:13.193Z,98473.89
2019-03-18T15:11:40.870Z,98480.20
2019-03-18T15:15:02.290Z,98479.78
2019-03-18T15:21:09.407Z,98486.27
2019-03-18T15:23:36.383Z,98478.06
2019-03-18T15:26:05.195Z,98485.59
2019-03-18T15:28:32.756Z,98496.02
2019-03-18T15:31:13.469Z,98490.70
2019-03-18T15:33:40.114Z,98495.42
2019-03-18T15:36:06.699Z,98507.64
2019-03-18T15:38:33.271Z,98525.12
2019-03-18T15:40:59.922Z,98523.34
2019-03-18T15:43:26.512Z,98535.38
2019-03-18T15:45:53.074Z,98512.08
2019-03-18T15:52:10.343Z,98510.78
2019-03-18T15:54:29.065Z,98521.16
2019-03-18T15:56:55.781Z,98518.53
2019-03-18T16:00:17.992Z,98522.44
2019-03-18T16:02:44.729Z,98517.25
2019-03-18T16:06:04.319Z,98525.92
2019-03-18T16:08:30.975Z,98532.88
2019-03-18T16:10:58.068Z,98539.38
2019-03-18T16:13:24.718Z,98549.34
2019-03-18T16:16:02.146Z,98549.75
2019-03-18T16:18:28.755Z,98548.42
2019-03-18T16:20:55.910Z,98547.08
2019-03-18T16:27:03.963Z,98559.70
2019-03-18T16:29:32.335Z,98553.59
2019-03-18T16:32:10.529Z,98560.14
2019-03-18T16:34:27.548Z,98563.16
2019-03-18T16:36:54.152Z,98563.62
2019-03-18T16:39:20.803Z,98566.70
2019-03-18T16:42:42.497Z,98566.27
2019-03-18T16:45:10.482Z,98575.87
2019-03-18T16:47:37.143Z,98583.25
2019-03-18T16:50:25.135Z,98588.91
2019-03-18T16:52:51.810Z,98588.92
2019-03-18T16:55:18.563Z,98599.80
2019-03-18T16:57:45.199Z,98602.42
2019-03-18T17:00:14.346Z,98604.14
2019-03-18T17:03:36.249Z,98608.92
2019-03-18T17:06:03.215Z,98605.89
2019-03-18T17:08:30.190Z,98607.66
2019-03-18T17:10:56.864Z,98611.13
2019-03-18T17:17:03.987Z,98620.72
2019-03-18T17:20:18.999Z,98616.37
2019-03-18T17:26:26.201Z,98626.80
2019-03-18T17:28:52.923Z,98628.51
2019-03-18T17:31:19.880Z,98631.13
2019-03-18T17:33:46.977Z,98640.69
2019-03-18T17:36:15.088Z,98638.53
2019-03-18T17:38:41.660Z,98642.42
2019-03-18T17:41:09.328Z,98638.08
2019-03-18T17:43:36.234Z,98646.78
2019-03-18T17:46:03.038Z,98661.56
2019-03-18T17:48:29.553Z,98662.41
2019-03-18T17:50:56.109Z,98672.42
2019-03-18T17:53:23.797Z,98681.98
2019-03-18T17:55:50.574Z,98685.88
2019-03-18T17:58:21.022Z,98695.02
2019-03-18T18:00:49.871Z,98685.03
2019-03-18T18:03:16.888Z,98696.34
2019-03-18T18:05:43.406Z,98702.84
2019-03-18T18:08:10.055Z,98709.34
2019-03-18T18:10:36.793Z,98712.84
2019-03-18T18:13:03.589Z,98714.58
2019-03-18T18:19:10.550Z,98735.43
2019-03-18T18:21:37.274Z,98741.51
2019-03-18T18:24:03.954Z,98745.00
2019-03-18T18:26:30.725Z,98754.55
2019-03-18T18:28:57.354Z,98759.33
2019-03-18T18:31:24.013Z,98758.02
2019-03-18T18:33:50.929Z,98760.20
2019-03-18T18:36:17.675Z,98768.89
2019-03-18T18:38:44.476Z,98771.50
2019-03-18T18:41:13.854Z,98774.08
2019-03-18T18:43:42.525Z,98782.34
2019-03-18T18:46:09.607Z,98778.42
2019-03-18T18:48:36.202Z,98781.44
2019-03-18T18:51:03.089Z,98781.39
2019-03-18T18:53:29.629Z,98791.79
2019-03-18T18:55:57.224Z,98796.56
2019-03-18T18:58:23.878Z,98787.42
2019-03-18T19:01:23.413Z,98795.59
2019-03-18T19:03:50.012Z,98800.80
2019-03-18T19:09:56.457Z,98814.56
2019-03-18T19:16:04.078Z,98817.50
2019-03-18T19:22:10.792Z,98817.40
2019-03-18T19:24:37.442Z,98816.09
2019-03-18T19:27:04.172Z,98816.95
2019-03-18T19:29:30.827Z,98818.20
2019-03-18T19:31:57.867Z,98829.46
2019-03-18T19:34:24.491Z,98835.12
2019-03-18T19:36:51.258Z,98838.56
2019-03-18T19:39:17.852Z,98841.99
2019-03-18T19:42:39.325Z,98845.88
2019-03-18T19:45:07.171Z,98849.33
2019-03-18T19:47:33.922Z,98852.73
2019-03-18T19:50:00.811Z,98845.30
2019-03-18T19:52:27.511Z,98853.02
2019-03-18T19:54:54.360Z,98850.80
2019-03-18T19:57:21.486Z,98857.23
2019-03-18T19:59:55.327Z,98861.11
2019-03-18T20:02:23.693Z,98861.95
2019-03-18T20:05:02.539Z,98874.88
2019-03-18T20:11:09.871Z,98880.83
2019-03-18T20:17:16.454Z,98895.48
2019-03-18T20:19:43.135Z,98897.22
2019-03-18T20:22:09.731Z,98898.96
2019-03-18T20:25:03.888Z,98899.05
2019-03-18T20:27:30.488Z,98901.66
2019-03-18T20:29:57.377Z,98909.53
2019-03-18T20:32:23.951Z,98899.20
2019-03-18T20:34:50.784Z,98912.21
2019-03-18T20:38:12.329Z,98908.33
2019-03-18T20:40:39.273Z,98905.78
2019-03-18T20:43:06.406Z,98911.81
2019-03-18T20:45:33.210Z,98909.17
2019-03-18T20:47:59.935Z,98906.52
2019-03-18T20:50:26.456Z,98900.84
2019-03-18T20:52:52.940Z,98912.11
2019-03-18T20:56:00.755Z,98911.25
2019-03-18T20:58:24.960Z,98914.29
2019-03-18T21:00:53.473Z,98912.11
2019-03-18T21:04:14.768Z,98918.52
2019-03-18T21:06:41.392Z,98930.14
2019-03-18T21:10:02.970Z,98934.44
2019-03-18T21:13:17.050Z,98937.03
2019-03-18T21:15:43.794Z,98941.72
2019-03-18T21:18:10.593Z,98949.52
2019-03-18T21:21:32.488Z,98949.06
2019-03-18T21:23:59.306Z,98956.87
2019-03-18T21:26:26.009Z,98950.81
2019-03-18T21:28:52.509Z,98958.20
2019-03-18T21:34:59.332Z,98959.48
2019-03-18T21:38:08.404Z,98958.59
2019-03-18T21:44:17.727Z,98973.66
2019-03-18T21:46:44.673Z,98980.03
2019-03-18T21:49:24.712Z,98981.30
2019-03-18T21:55:33.035Z,98983.48
2019-03-18T21:58:03.065Z,98988.77
2019-03-18T22:00:32.089Z,98990.98
2019-03-18T22:03:05.135Z,98998.84
2019-03-18T22:05:51.464Z,98999.27
2019-03-18T22:11:07.265Z,99000.16
2019-03-18T22:17:13.824Z,99014.96
2019-03-18T22:19:40.712Z,99013.19
2019-03-18T22:23:02.277Z,99024.41
2019-03-18T22:25:34.743Z,99017.81
2019-03-18T22:28:01.913Z,99019.84
2019-03-18T22:34:09.605Z,99025.57
2019-03-18T22:36:36.447Z,99031.35
2019-03-18T22:39:06.463Z,99031.23
2019-03-18T22:42:27.710Z,99029.31
2019-03-18T22:48:34.307Z,99041.00
2019-03-18T22:51:01.260Z,99045.88
2019-03-18T22:54:23.081Z,99044.04
2019-03-18T22:56:50.048Z,99047.38
2019-03-18T22:59:16.741Z,99045.41
2019-03-18T23:01:43.444Z,99039.23
2019-03-18T23:04:10.025Z,99039.52
2019-03-18T23:06:36.998Z,99045.86
2019-03-18T23:09:58.656Z,99054.94
2019-03-18T23:12:25.184Z,99053.70
2019-03-18T23:14:52.054Z,99065.80
2019-03-18T23:18:14.264Z,99057.13
2019-03-18T23:20:41.037Z,99057.19
2019-03-18T23:26:48.885Z,99058.98
2019-03-18T23:29:15.747Z,99061.13
2019-03-18T23:31:44.510Z,99064.11
2019-03-18T23:37:51.654Z,99073.18
2019-03-18T23:40:18.503Z,99067.41
2019-03-18T23:42:45.029Z,99070.71
2019-03-18T23:45:12.126Z,99065.48
2019-03-18T23:47:41.616Z,99072.72
2019-03-18T23:53:48.270Z,99085.47
2019-03-18T23:56:14.937Z,99084.14
2019-03-18T23:58:41.869Z,99091.94
